Time;durP1;ratioP1;P1;durP2;ratioP2;P2;SDS_P1;SDS_P2;PMS_P1;PMS_P2;Temp;Humidity;BMP_temperature;BMP_pressure;BME280_temperature;BME280_humidity;BME280_pressure;Samples;Min_cycle;Max_cycle;Signal;HPM_P1;HPM_P2
2022/11/24 00:01:16;;;;;;;39.08;18.95;;;;;;;5.84;100.00;98848.38;4493418;31;33608;-81
2022/11/24 00:03:46;;;;;;;39.53;19.77;;;;;;;5.88;99.53;98846.03;4486319;31;33957;-80
2022/11/24 00:06:14;;;;;;;42.50;20.30;;;;;;;5.78;99.97;98850.66;4475963;31;33860;-81
2022/11/24 00:08:43;;;;;;;40.38;19.87;;;;;;;6.09;99.77;98848.75;4486129;31;33925;-80
2022/11/24 00:11:16;;;;;;;38.78;18.90;;;;;;;7.15;92.37;98844.06;4485161;32;33233;-78
2022/11/24 00:13:44;;;;;;;35.97;19.08;;;;;;;6.77;93.20;98841.56;4484530;31;34716;-79
2022/11/24 00:16:14;;;;;;;34.53;17.50;;;;;;;7.54;89.84;98850.00;4483672;32;33781;-78
2022/11/24 00:18:43;;;;;;;35.28;17.65;;;;;;;8.07;86.55;98847.81;4478674;32;33612;-80
2022/11/24 00:21:12;;;;;;;33.83;17.20;;;;;;;7.92;85.64;98853.25;4472086;32;33448;-77
2022/11/24 00:23:40;;;;;;;32.80;16.75;;;;;;;7.36;88.52;98849.22;4484936;32;33824;-80
2022/11/24 00:26:10;;;;;;;32.80;15.73;;;;;;;6.19;95.00;98862.06;4483285;32;34433;-77
2022/11/24 00:28:38;;;;;;;34.33;16.23;;;;;;;6.34;94.30;98870.50;4483805;32;33388;-79
2022/11/24 00:31:20;;;;;;;30.48;15.50;;;;;;;7.76;88.49;98861.16;4484655;32;33856;-79
2022/11/24 00:33:50;;;;;;;35.45;16.45;;;;;;;6.71;92.46;98871.28;4483384;32;33769;-78
2022/11/24 00:36:21;;;;;;;29.75;15.10;;;;;;;7.80;87.41;98865.63;4484505;32;33606;-80
2022/11/24 00:38:56;;;;;;;33.90;16.15;;;;;;;8.23;84.32;98869.94;4482967;32;33794;-76
2022/11/24 00:41:24;;;;;;;32.35;14.65;;;;;;;8.06;83.59;98872.72;4484014;32;33482;-78
2022/11/24 00:43:53;;;;;;;32.10;15.32;;;;;;;8.45;82.49;98866.50;4484472;32;34607;-77
2022/11/24 00:46:20;;;;;;;30.25;15.10;;;;;;;8.21;83.17;98871.59;4482730;32;33626;-79
2022/11/24 00:48:48;;;;;;;31.67;15.05;;;;;;;6.95;89.25;98876.62;4484362;32;33934;-79
2022/11/24 00:51:17;;;;;;;28.15;15.98;;;;;;;6.48;93.03;98879.72;4483607;32;32990;-79
2022/11/24 00:53:45;;;;;;;32.35;16.30;;;;;;;7.50;88.66;98883.31;4484040;32;34409;-79
2022/11/24 00:56:12;;;;;;;31.23;15.23;;;;;;;8.15;84.79;98884.22;4484835;32;33667;-79
2022/11/24 00:58:40;;;;;;;28.38;14.63;;;;;;;6.35;92.47;98897.97;4483208;32;33908;-81
2022/11/24 01:01:11;;;;;;;31.67;15.63;;;;;;;7.50;88.99;98884.19;4482493;32;33971;-80
2022/11/24 01:03:39;;;;;;;30.90;15.88;;;;;;;6.61;94.36;98893.16;4484426;32;32295;-79
2022/11/24 01:06:10;;;;;;;27.30;14.30;;;;;;;5.75;96.30;98901.91;4469940;32;32206;-76
2022/11/24 01:08:39;;;;;;;32.05;16.00;;;;;;;6.87;91.44;98895.19;4482810;32;34538;-75
2022/11/24 01:11:19;;;;;;;34.78;16.90;;;;;;;6.24;94.57;98897.47;4482971;32;32657;-80
2022/11/24 01:13:50;;;;;;;36.13;16.87;;;;;;;5.82;97.00;98898.81;4482181;32;32225;-80
2022/11/24 01:16:21;;;;;;;37.22;18.83;;;;;;;6.59;95.96;98897.34;4484178;32;34535;-79
2022/11/24 01:18:49;;;;;;;47.53;20.35;;;;;;;5.66;97.77;98892.94;4482051;32;33159;-79
2022/11/24 01:21:16;;;;;;;43.35;18.58;;;;;;;5.26;100.00;98902.87;4481810;32;33809;-77
2022/11/24 01:23:45;;;;;;;41.35;19.62;;;;;;;5.44;100.00;98895.22;4481815;32;33588;-79
2022/11/24 01:26:15;;;;;;;44.10;20.95;;;;;;;6.61;95.64;98891.47;4483092;32;33825;-80
2022/11/24 01:28:43;;;;;;;44.58;22.10;;;;;;;5.80;97.67;98900.44;4482345;32;34704;-76
2022/11/24 01:31:14;;;;;;;42.47;20.02;;;;;;;5.51;100.00;98894.75;4476417;32;32663;-79
2022/11/24 01:33:42;;;;;;;43.63;20.83;;;;;;;5.91;100.00;98899.28;4482394;32;33448;-81
2022/11/24 01:36:09;;;;;;;46.53;22.23;;;;;;;6.23;96.54;98902.53;4483413;32;34527;-77
2022/11/24 01:38:37;;;;;;;48.60;23.33;;;;;;;6.82;92.40;98899.28;4483936;32;33942;-79
2022/11/24 01:41:16;;;;;;;47.78;22.65;;;;;;;6.23;94.88;98903.41;4483008;32;33202;-80
2022/11/24 01:43:45;;;;;;;44.83;21.27;;;;;;;6.38;92.76;98908.41;4483333;32;34319;-78
2022/11/24 01:46:26;;;;;;;45.72;22.02;;;;;;;6.38;96.17;98908.41;4483326;32;34682;-78
2022/11/24 01:49:16;;;;;;;45.80;23.25;;;;;;;6.07;95.65;98912.09;4474678;32;34470;-77
2022/11/24 01:52:00;;;;;;;53.42;24.02;;;;;;;6.40;93.28;98909.34;4481933;32;33143;-78
2022/11/24 01:54:30;;;;;;;46.28;23.38;;;;;;;5.84;99.19;98912.63;4482104;32;34322;-77
2022/11/24 01:57:08;;;;;;;47.22;21.83;;;;;;;5.46;100.00;98903.87;4478866;32;33644;-77
2022/11/24 01:59:36;;;;;;;51.15;23.80;;;;;;;5.72;100.00;98903.50;4482690;32;33868;-78
2022/11/24 02:02:03;;;;;;;44.90;22.73;;;;;;;6.62;96.40;98906.06;4478520;32;33100;-77
2022/11/24 02:04:32;;;;;;;56.03;25.15;;;;;;;6.82;93.75;98901.84;4481837;32;34312;-77
2022/11/24 02:07:02;;;;;;;47.88;22.60;;;;;;;5.80;97.57;98900.44;4479578;32;34506;-77
2022/11/24 02:09:35;;;;;;;48.25;21.20;;;;;;;5.66;100.00;98903.22;4481857;32;33825;-77
2022/11/24 02:12:03;;;;;;;51.30;22.73;;;;;;;6.80;93.11;98898.31;4476437;32;34370;-77
2022/11/24 02:14:34;;;;;;;52.22;24.20;;;;;;;6.37;95.11;98911.78;4463731;32;33917;-77
2022/11/24 02:17:02;;;;;;;57.58;24.52;;;;;;;6.30;96.00;98904.59;4481442;32;34173;-79
2022/11/24 02:19:39;;;;;;;55.90;25.88;;;;;;;6.21;95.18;98910.16;4481580;32;34625;-80
2022/11/24 02:22:12;;;;;;;58.42;25.90;;;;;;;6.13;93.93;98915.78;4483177;32;34281;-80
2022/11/24 02:24:49;;;;;;;52.30;23.33;;;;;;;6.24;94.67;98909.47;4479280;32;34228;-76
2022/11/24 02:27:18;;;;;;;53.67;23.52;;;;;;;6.32;93.96;98912.34;4470981;32;34797;-78
2022/11/24 02:29:45;;;;;;;58.17;25.12;;;;;;;6.28;94.54;98916.50;4478032;32;33855;-80
2022/11/24 02:32:13;;;;;;;53.30;23.65;;;;;;;6.37;93.50;98922.06;4474947;32;34017;-76
2022/11/24 02:34:40;;;;;;;58.15;26.27;;;;;;;6.25;94.97;98924.06;4483812;32;33513;-77
2022/11/24 02:37:08;;;;;;;62.38;26.23;;;;;;;6.44;93.10;98924.13;4485554;32;33688;-79
2022/11/24 02:39:36;;;;;;;64.03;27.65;;;;;;;6.55;92.71;98926.31;4484598;32;34189;-76
2022/11/24 02:42:07;;;;;;;57.80;25.15;;;;;;;6.66;92.10;98925.09;4484645;32;34429;-80
2022/11/24 02:44:38;;;;;;;58.28;26.08;;;;;;;6.35;92.91;98927.94;4483558;32;34428;-78
2022/11/24 02:47:09;;;;;;;59.03;24.92;;;;;;;6.35;92.82;98923.69;4477759;32;34655;-78
2022/11/24 02:49:36;;;;;;;64.70;27.23;;;;;;;6.08;93.71;98915.53;4484374;32;34362;-77
2022/11/24 02:52:04;;;;;;;60.88;26.80;;;;;;;5.60;95.67;98923.47;4485455;32;33571;-76
2022/11/24 02:54:32;;;;;;;68.25;29.40;;;;;;;5.81;95.54;98918.47;4485004;32;34529;-80
2022/11/24 02:57:00;;;;;;;69.20;30.55;;;;;;;5.79;95.86;98920.09;4480450;32;33756;-80
2022/11/24 02:59:27;;;;;;;65.93;29.73;;;;;;;5.70;95.51;98920.53;4484911;32;33861;-80
2022/11/24 03:01:55;;;;;;;68.87;31.98;;;;;;;6.24;93.95;98919.75;4485066;32;33332;-78
2022/11/24 03:04:22;;;;;;;70.68;30.73;;;;;;;6.04;93.18;98927.34;4484059;32;33625;-77
2022/11/24 03:06:50;;;;;;;71.95;27.33;;;;;;;6.18;93.09;98924.56;4482588;32;33403;-79
2022/11/24 03:09:17;;;;;;;60.90;26.37;;;;;;;6.10;93.09;98927.69;4483149;32;34567;-76
2022/11/24 03:11:45;;;;;;;63.05;27.15;;;;;;;6.17;92.84;98933.09;4485311;32;34273;-78
2022/11/24 03:14:12;;;;;;;60.53;25.92;;;;;;;5.76;95.06;98929.38;4484695;32;34401;-76
2022/11/24 03:16:40;;;;;;;58.78;25.27;;;;;;;6.17;92.45;98938.25;4484959;32;33851;-77
2022/11/24 03:19:07;;;;;;;60.42;25.83;;;;;;;5.88;94.67;98942.81;4484782;32;33633;-79
2022/11/24 03:21:35;;;;;;;58.38;25.80;;;;;;;6.16;92.49;98942.53;4480375;32;33499;-77
2022/11/24 03:24:03;;;;;;;66.90;26.12;;;;;;;6.17;92.09;98946.84;4484685;32;33995;-76
2022/11/24 03:26:32;;;;;;;58.15;23.35;;;;;;;6.20;91.99;98943.53;4483650;32;33423;-77
2022/11/24 03:29:00;;;;;;;53.55;25.52;;;;;;;6.08;91.57;98944.72;4483716;32;33352;-75
2022/11/24 03:31:28;;;;;;;59.35;25.17;;;;;;;6.02;92.30;98939.25;4484850;32;33416;-79
2022/11/24 03:33:56;;;;;;;60.25;27.42;;;;;;;5.78;93.01;98932.91;4482281;32;34135;-79
2022/11/24 03:36:23;;;;;;;61.63;27.25;;;;;;;6.05;92.82;98944.56;4483440;32;32902;-77
2022/11/24 03:38:51;;;;;;;62.53;25.42;;;;;;;6.24;91.28;98942.88;4483681;32;33934;-78
2022/11/24 03:41:18;;;;;;;55.17;24.35;;;;;;;6.27;90.16;98943.03;4483039;32;33354;-76
2022/11/24 03:43:46;;;;;;;63.97;27.05;;;;;;;6.08;90.35;98938.66;4482594;32;34266;-78
2022/11/24 03:46:13;;;;;;;63.38;27.73;;;;;;;6.00;91.01;98940.87;4484027;32;33681;-78
2022/11/24 03:48:41;;;;;;;59.78;28.05;;;;;;;6.15;90.49;98935.59;4483471;32;34290;-75
2022/11/24 03:51:09;;;;;;;56.97;26.20;;;;;;;5.95;90.79;98941.41;4484898;32;33431;-79
2022/11/24 03:53:36;;;;;;;49.55;23.08;;;;;;;5.34;93.13;98929.84;4482882;32;33678;-78
2022/11/24 03:56:04;;;;;;;57.60;27.27;;;;;;;5.71;90.98;98937.69;4483543;32;32317;-77
2022/11/24 03:58:31;;;;;;;61.13;30.12;;;;;;;5.59;90.79;98943.94;4484151;32;33797;-77
2022/11/24 04:00:59;;;;;;;62.47;27.90;;;;;;;5.45;91.99;98943.25;4484288;32;33518;-79
2022/11/24 04:03:26;;;;;;;58.92;28.95;;;;;;;5.54;90.54;98943.69;4482416;32;32359;-80
2022/11/24 04:05:54;;;;;;;59.97;27.67;;;;;;;5.48;90.83;98948.50;4481705;32;33751;-75
2022/11/24 04:08:21;;;;;;;61.10;27.75;;;;;;;5.58;90.04;98945.62;4484775;32;33595;-76
2022/11/24 04:10:51;;;;;;;54.40;25.27;;;;;;;5.45;90.57;98959.53;4475751;32;33599;-77
2022/11/24 04:13:21;;;;;;;50.08;24.10;;;;;;;5.49;90.49;98953.72;4484155;32;34392;-79
2022/11/24 04:15:48;;;;;;;62.35;28.42;;;;;;;5.03;90.95;98947.91;4484621;32;34011;-76
2022/11/24 04:18:17;;;;;;;65.78;27.20;;;;;;;5.14;91.18;98957.06;4484944;32;33599;-77
2022/11/24 04:20:44;;;;;;;61.95;25.30;;;;;;;5.22;90.89;98960.91;4484515;32;33221;-76
2022/11/24 04:23:12;;;;;;;68.87;30.58;;;;;;;5.07;90.69;98965.22;4484102;32;33990;-78
2022/11/24 04:25:42;;;;;;;69.82;28.77;;;;;;;5.07;90.99;98967.78;4484720;32;33959;-78
2022/11/24 04:28:10;;;;;;;63.97;24.87;;;;;;;4.91;91.82;98972.09;4484216;32;33033;-77
2022/11/24 04:30:39;;;;;;;71.72;27.80;;;;;;;5.08;89.90;98982.38;4484124;32;33496;-77
2022/11/24 04:33:06;;;;;;;55.38;25.05;;;;;;;4.90;90.26;98978.03;4480812;32;32814;-76
2022/11/24 04:35:34;;;;;;;62.58;25.17;;;;;;;4.99;89.99;98981.91;4474479;32;33717;-77
2022/11/24 04:38:01;;;;;;;80.78;29.92;;;;;;;4.74;90.09;98985.72;4484948;32;33996;-79
2022/11/24 04:40:29;;;;;;;64.87;28.52;;;;;;;4.86;90.12;98991.50;4484394;32;33483;-78
2022/11/24 04:42:56;;;;;;;67.95;27.17;;;;;;;4.72;89.73;98982.19;4482668;32;34485;-75
2022/11/24 04:45:24;;;;;;;59.85;26.27;;;;;;;4.66;90.27;98997.25;4484390;32;33771;-78
2022/11/24 04:47:51;;;;;;;73.78;31.52;;;;;;;4.61;90.29;99007.22;4474015;32;32389;-76
2022/11/24 04:50:19;;;;;;;75.70;29.48;;;;;;;4.82;90.15;99009.22;4484165;32;33449;-79
2022/11/24 04:52:47;;;;;;;69.90;28.60;;;;;;;4.55;90.47;99006.03;4484396;32;33932;-78
2022/11/24 04:55:14;;;;;;;74.22;28.77;;;;;;;4.69;90.12;99015.34;4484232;32;33853;-75
2022/11/24 04:57:42;;;;;;;73.05;30.55;;;;;;;4.61;89.95;99019.19;4479061;32;32297;-78
2022/11/24 05:00:10;;;;;;;58.90;24.15;;;;;;;4.49;91.00;99009.13;4481841;32;33412;-77
2022/11/24 05:02:38;;;;;;;73.57;29.00;;;;;;;4.53;89.60;99027.31;4483914;32;33990;-79
2022/11/24 05:05:06;;;;;;;78.37;29.37;;;;;;;4.66;89.19;99033.16;4481758;32;33811;-77
2022/11/24 05:07:33;;;;;;;73.55;28.85;;;;;;;4.80;88.59;99027.09;4476475;32;34394;-77
2022/11/24 05:12:55;;;;;;;71.20;28.52;;;;;;;4.91;87.75;99041.41;4482530;32;34634;-80
2022/11/24 05:15:23;;;;;;;65.95;23.40;;;;;;;4.74;87.87;99042.16;4483335;32;33777;-76
2022/11/24 05:17:50;;;;;;;67.43;27.37;;;;;;;4.93;86.69;99050.06;4484101;32;33658;-79
2022/11/24 05:20:18;;;;;;;63.17;26.23;;;;;;;4.97;86.81;99061.38;4484426;32;33666;-75
2022/11/24 05:22:46;;;;;;;70.87;27.45;;;;;;;5.02;86.69;99064.19;4480069;32;33742;-77
2022/11/24 05:25:13;;;;;;;70.72;27.15;;;;;;;5.22;85.80;99068.72;4482696;32;34367;-79
2022/11/24 05:27:41;;;;;;;68.37;26.73;;;;;;;5.35;86.33;99065.16;4482464;32;34286;-78
2022/11/24 05:30:09;;;;;;;59.63;24.35;;;;;;;5.15;86.38;99066.62;4483298;32;33559;-75
2022/11/24 05:32:36;;;;;;;62.67;25.37;;;;;;;5.79;83.27;99063.13;4484426;32;33901;-80
2022/11/24 05:35:04;;;;;;;71.15;28.52;;;;;;;5.65;83.48;99067.56;4483830;32;33612;-77
2022/11/24 05:37:31;;;;;;;59.05;25.88;;;;;;;5.67;83.58;99069.41;4474111;32;34537;-79
2022/11/24 05:39:59;;;;;;;61.40;26.05;;;;;;;6.04;81.73;99066.19;4483921;32;33588;-78
2022/11/24 05:42:41;;;;;;;58.95;22.80;;;;;;;6.06;81.11;99074.84;4483838;32;33584;-78
2022/11/24 05:45:16;;;;;;;72.65;25.08;;;;;;;6.23;80.92;99077.41;4483026;32;33914;-80
2022/11/24 05:47:44;;;;;;;66.00;25.67;;;;;;;5.87;81.13;99072.13;4482995;32;34002;-80
2022/11/24 05:50:14;;;;;;;64.45;24.58;;;;;;;5.75;82.89;99081.78;4461493;32;34305;-81
2022/11/24 05:52:42;;;;;;;57.42;23.38;;;;;;;6.19;80.33;99070.34;4483924;32;34636;-80
2022/11/24 05:55:09;;;;;;;60.38;24.75;;;;;;;6.24;79.33;99074.06;4484034;32;34521;-78
2022/11/24 05:57:37;;;;;;;52.45;22.02;;;;;;;6.04;79.77;99081.59;4474790;32;34524;-78
2022/11/24 06:00:06;;;;;;;61.65;23.50;;;;;;;6.07;78.90;99076.63;4473667;32;33499;-77
2022/11/24 06:02:38;;;;;;;55.00;22.65;;;;;;;5.97;79.97;99079.56;4483197;32;33726;-80
2022/11/24 06:05:06;;;;;;;58.80;22.00;;;;;;;5.93;82.13;99085.31;4470707;32;33644;-77
2022/11/24 06:07:33;;;;;;;54.80;22.35;;;;;;;6.17;79.75;99093.41;4485765;31;34392;-78
2022/11/24 06:10:01;;;;;;;55.90;22.37;;;;;;;5.99;79.70;99095.94;4485888;32;33648;-78
2022/11/24 06:12:29;;;;;;;52.97;22.80;;;;;;;5.78;80.00;99105.06;4484148;32;33675;-78
2022/11/24 06:14:56;;;;;;;57.38;23.58;;;;;;;5.99;79.48;99106.22;4481040;31;33644;-78
2022/11/24 06:17:24;;;;;;;56.10;21.90;;;;;;;5.47;82.05;99111.16;4484531;32;34668;-78
2022/11/24 06:19:51;;;;;;;53.13;23.05;;;;;;;5.71;82.11;99109.87;4483998;32;34167;-79
2022/11/24 06:22:19;;;;;;;58.00;24.05;;;;;;;5.36;82.29;99117.41;4485276;32;33339;-75
2022/11/24 06:24:46;;;;;;;50.20;22.27;;;;;;;5.68;82.62;99117.44;4483764;31;33884;-78
2022/11/24 06:27:14;;;;;;;64.93;24.08;;;;;;;5.79;80.94;99124.81;4482843;31;33768;-76
2022/11/24 06:29:41;;;;;;;60.20;22.50;;;;;;;5.90;79.67;99134.84;4485432;31;34064;-76
2022/11/24 06:32:09;;;;;;;51.90;21.20;;;;;;;5.89;79.62;99129.63;4485697;31;33969;-79
2022/11/24 06:34:36;;;;;;;55.78;21.67;;;;;;;5.62;82.09;99147.94;4485052;31;33743;-78
2022/11/24 06:37:04;;;;;;;52.33;23.20;;;;;;;5.81;79.48;99146.34;4486266;31;34526;-80
2022/11/24 06:39:31;;;;;;;58.08;23.77;;;;;;;6.10;79.97;99143.66;4486485;31;33761;-77
2022/11/24 06:41:59;;;;;;;59.38;23.10;;;;;;;5.81;80.50;99143.75;4486491;31;33883;-79
2022/11/24 06:44:26;;;;;;;54.55;22.77;;;;;;;5.77;80.93;99142.72;4485417;31;33827;-76
2022/11/24 06:46:54;;;;;;;59.30;22.62;;;;;;;5.51;82.17;99149.91;4485226;31;33987;-78
2022/11/24 06:49:22;;;;;;;50.72;20.42;;;;;;;5.36;82.32;99143.06;4483665;32;33501;-79
2022/11/24 06:51:49;;;;;;;49.95;20.88;;;;;;;5.42;82.77;99143.41;4478693;31;33700;-79
2022/11/24 06:54:19;;;;;;;53.13;21.73;;;;;;;5.15;83.14;99148.78;4483530;32;34472;-77
2022/11/24 06:56:47;;;;;;;53.60;21.52;;;;;;;5.23;83.51;99144.94;4484370;32;33624;-77
2022/11/24 06:59:17;;;;;;;50.95;22.00;;;;;;;5.36;82.75;99155.91;4485140;32;33365;-77
2022/11/24 07:01:46;;;;;;;53.28;22.45;;;;;;;5.48;82.55;99156.56;4482573;32;33695;-78
2022/11/24 07:04:14;;;;;;;41.58;18.30;;;;;;;5.44;82.25;99158.09;4481458;32;33864;-77
2022/11/24 07:06:42;;;;;;;52.35;20.73;;;;;;;5.35;81.90;99159.28;4482920;32;34136;-81
2022/11/24 07:09:10;;;;;;;48.35;19.67;;;;;;;5.23;81.96;99162.91;4485390;32;33585;-77
2022/11/24 07:11:39;;;;;;;47.80;21.12;;;;;;;5.44;82.31;99165.78;4480442;32;33172;-78
2022/11/24 07:14:06;;;;;;;56.17;21.90;;;;;;;5.54;82.35;99174.88;4483356;32;32408;-77
2022/11/24 07:16:34;;;;;;;54.08;20.73;;;;;;;5.62;81.39;99178.78;4485812;31;33841;-77
2022/11/24 07:19:02;;;;;;;46.30;19.62;;;;;;;5.59;81.18;99182.88;4480630;32;33435;-77
2022/11/24 07:21:29;;;;;;;48.83;21.92;;;;;;;5.87;81.25;99182.62;4483679;32;34277;-77
2022/11/24 07:23:57;;;;;;;50.15;21.08;;;;;;;5.60;81.51;99193.22;4483805;32;33501;-76
2022/11/24 07:26:25;;;;;;;52.78;20.67;;;;;;;5.86;80.05;99186.03;4483311;32;34707;-79
2022/11/24 07:28:52;;;;;;;49.08;20.00;;;;;;;5.69;80.00;99192.81;4485142;32;33537;-79
2022/11/24 07:31:23;;;;;;;47.30;19.92;;;;;;;5.86;80.00;99198.88;4483685;32;34393;-78
2022/11/24 07:33:53;;;;;;;52.53;19.15;;;;;;;6.00;79.30;99207.34;4485053;32;33696;-80
2022/11/24 07:36:21;;;;;;;48.05;19.75;;;;;;;6.12;78.79;99202.84;4484879;32;33388;-77
2022/11/24 07:38:49;;;;;;;45.30;19.17;;;;;;;6.28;78.79;99207.13;4480891;32;33551;-77
2022/11/24 07:41:20;;;;;;;43.95;19.48;;;;;;;6.52;77.86;99199.78;4478404;32;32360;-76
2022/11/24 07:43:49;;;;;;;47.38;18.20;;;;;;;6.35;78.34;99200.59;4479183;32;34831;-80
2022/11/24 07:46:18;;;;;;;47.80;20.48;;;;;;;5.71;80.90;99204.06;4476610;32;33685;-80
2022/11/24 07:48:46;;;;;;;45.28;19.25;;;;;;;6.52;78.33;99209.19;4484314;32;32832;-81
2022/11/24 07:51:14;;;;;;;40.22;16.67;;;;;;;6.60;78.14;99213.91;4469094;32;33847;-79
2022/11/24 07:53:42;;;;;;;43.15;18.00;;;;;;;6.45;77.23;99211.47;4482402;31;34860;-80
2022/11/24 07:56:12;;;;;;;48.38;20.17;;;;;;;6.07;77.77;99210.34;4488250;31;34365;-78
2022/11/24 07:58:39;;;;;;;47.53;19.20;;;;;;;5.30;83.05;99216.41;4482286;31;33912;-78
2022/11/24 08:01:15;;;;;;;43.75;18.02;;;;;;;6.08;79.43;99219.84;4491396;31;34707;-78
2022/11/24 08:03:43;;;;;;;48.45;18.30;;;;;;;6.46;78.31;99220.94;4477374;31;34014;-78
2022/11/24 08:06:11;;;;;;;49.08;18.50;;;;;;;6.20;78.85;99222.16;4483231;32;34530;-78
2022/11/24 08:08:59;;;;;;;48.85;19.70;;;;;;;6.21;79.49;99220.47;4484561;32;33020;-79
2022/11/24 08:11:27;;;;;;;52.95;20.30;;;;;;;6.17;79.50;99221.13;4483848;31;33348;-79
2022/11/24 08:13:54;;;;;;;53.97;21.73;;;;;;;6.36;78.85;99229.00;4489797;31;34551;-79
2022/11/24 08:16:22;;;;;;;50.55;24.80;;;;;;;6.10;79.33;99220.78;4480078;31;33188;-78
2022/11/24 08:18:52;;;;;;;52.00;21.73;;;;;;;6.06;79.80;99218.84;4489382;31;33061;-80
2022/11/24 08:21:21;;;;;;;52.35;22.33;;;;;;;6.04;80.04;99219.56;4484568;31;33132;-77
2022/11/24 08:23:54;;;;;;;52.38;23.23;;;;;;;6.10;80.17;99225.03;4481834;31;33789;-79
2022/11/24 08:26:23;;;;;;;45.95;21.05;;;;;;;6.38;79.66;99232.53;4482391;32;33895;-77
2022/11/24 08:28:54;;;;;;;49.30;20.98;;;;;;;6.55;78.07;99240.22;4483071;31;31781;-78
2022/11/24 08:31:21;;;;;;;51.28;21.55;;;;;;;6.39;78.85;99236.84;4473165;32;33550;-77
2022/11/24 08:33:49;;;;;;;48.60;21.15;;;;;;;6.45;79.56;99238.84;4484587;32;34637;-78
2022/11/24 08:36:17;;;;;;;45.67;18.87;;;;;;;5.89;81.04;99245.28;4480374;32;33606;-77
2022/11/24 08:38:45;;;;;;;49.75;19.40;;;;;;;6.59;78.06;99242.16;4479351;32;33275;-77
2022/11/24 08:41:14;;;;;;;36.75;15.02;;;;;;;6.20;79.60;99246.97;4480671;32;33760;-77
2022/11/24 08:43:42;;;;;;;45.88;19.12;;;;;;;6.13;78.63;99242.34;4482833;32;33350;-81
2022/11/24 08:46:11;;;;;;;49.70;18.42;;;;;;;6.07;79.27;99241.19;4483486;32;34820;-78
2022/11/24 08:48:40;;;;;;;40.38;16.10;;;;;;;6.21;78.31;99238.47;4482574;32;33505;-79
2022/11/24 08:51:14;;;;;;;48.85;19.83;;;;;;;6.15;78.66;99233.88;4482517;32;33700;-79
2022/11/24 08:53:42;;;;;;;44.33;17.52;;;;;;;6.24;78.68;99252.38;4481081;32;33749;-76
2022/11/24 08:56:10;;;;;;;44.75;18.00;;;;;;;6.16;79.08;99245.03;4484436;32;33898;-79
2022/11/24 08:58:38;;;;;;;53.80;19.35;;;;;;;6.22;78.27;99246.28;4483693;31;33507;-78
2022/11/24 09:01:14;;;;;;;47.55;19.73;;;;;;;6.36;78.37;99241.84;4482637;32;33560;-79
2022/11/24 09:03:43;;;;;;;43.72;17.10;;;;;;;6.09;78.72;99244.72;4484198;32;34813;-78
2022/11/24 09:06:18;;;;;;;48.00;20.25;;;;;;;6.18;78.94;99261.44;4481665;32;33558;-77
2022/11/24 09:08:45;;;;;;;46.25;18.77;;;;;;;5.96;80.91;99268.00;4484383;32;33779;-79
2022/11/24 09:11:15;;;;;;;45.92;20.33;;;;;;;6.42;78.27;99260.16;4482923;31;33957;-79
2022/11/24 09:13:42;;;;;;;49.67;17.73;;;;;;;6.56;77.36;99271.19;4481398;31;33877;-77
2022/11/24 09:16:16;;;;;;;56.08;23.52;;;;;;;6.53;77.11;99277.84;4490625;31;35095;-78
2022/11/24 09:18:44;;;;;;;43.90;20.30;;;;;;;6.76;76.92;99277.37;4492187;31;34146;-79
2022/11/24 09:21:17;;;;;;;61.47;25.37;;;;;;;6.60;77.27;99274.81;4481853;31;33622;-79
2022/11/24 09:23:49;;;;;;;66.20;27.08;;;;;;;6.97;76.83;99272.41;4483735;31;34584;-78
2022/11/24 09:26:18;;;;;;;52.53;19.27;;;;;;;7.04;76.00;99278.75;4488884;31;32336;-78
2022/11/24 09:28:46;;;;;;;55.03;21.75;;;;;;;6.72;78.46;99285.72;4487736;31;32875;-78
2022/11/24 09:31:15;;;;;;;49.60;19.90;;;;;;;6.95;76.67;99275.72;4484406;31;35315;-79
2022/11/24 09:33:44;;;;;;;49.30;18.95;;;;;;;7.12;76.24;99282.59;4484128;31;33029;-79
2022/11/24 09:36:12;;;;;;;47.55;20.00;;;;;;;7.17;75.39;99278.56;4490560;31;33940;-77
2022/11/24 09:38:39;;;;;;;55.20;22.87;;;;;;;6.84;76.42;99288.94;4492074;31;33621;-80
2022/11/24 09:41:16;;;;;;;48.90;21.02;;;;;;;6.87;76.87;99290.78;4495706;31;33645;-79
2022/11/24 09:44:08;;;;;;;52.67;22.52;;;;;;;6.79;76.68;99285.22;4499649;31;34501;-78
2022/11/24 09:46:54;;;;;;;45.25;17.62;;;;;;;6.78;77.75;99285.16;4497631;31;33555;-78
2022/11/24 09:49:48;;;;;;;40.80;17.50;;;;;;;6.65;77.84;99283.66;4491134;31;33507;-78
2022/11/24 09:52:25;;;;;;;50.55;19.42;;;;;;;6.65;78.02;99284.53;4473431;31;33548;-77
2022/11/24 09:54:57;;;;;;;49.35;21.83;;;;;;;6.42;78.96;99280.75;4481438;31;34446;-79
2022/11/24 09:57:27;;;;;;;46.92;19.33;;;;;;;6.55;78.80;99286.53;4485682;31;33897;-78
2022/11/24 10:00:08;;;;;;;51.60;21.23;;;;;;;6.65;78.88;99288.81;4495352;31;33399;-79
2022/11/24 10:02:38;;;;;;;46.63;22.02;;;;;;;6.93;77.30;99280.78;4479136;31;34469;-77
2022/11/24 10:05:06;;;;;;;56.78;23.55;;;;;;;6.67;79.75;99290.63;4473812;31;33376;-77
2022/11/24 10:07:42;;;;;;;53.65;22.58;;;;;;;7.32;76.49;99282.69;4487794;31;34458;-78
2022/11/24 10:10:13;;;;;;;47.28;20.90;;;;;;;7.63;75.63;99288.56;4475307;31;33498;-78
2022/11/24 10:12:52;;;;;;;43.13;18.17;;;;;;;7.53;75.80;99285.44;4482386;31;33806;-79
2022/11/24 10:15:50;;;;;;;50.17;19.98;;;;;;;7.23;76.28;99296.91;4494047;31;33535;-80
2022/11/24 10:18:26;;;;;;;47.33;19.40;;;;;;;6.73;80.10;99302.94;4482288;31;33969;-78
2022/11/24 10:21:29;;;;;;;44.13;19.45;;;;;;;6.94;78.77;99286.84;4485114;31;34334;-76
2022/11/24 10:24:11;;;;;;;39.97;16.40;;;;;;;7.18;78.06;99298.34;4480625;31;33671;-78
2022/11/24 10:26:44;;;;;;;45.55;17.85;;;;;;;7.19;77.41;99289.84;4482460;31;34709;-77
2022/11/24 10:29:12;;;;;;;36.47;15.43;;;;;;;6.81;79.27;99296.50;4487466;31;34157;-78
2022/11/24 10:31:42;;;;;;;43.13;17.80;;;;;;;6.63;80.21;99298.13;4480197;31;33549;-76
2022/11/24 10:34:13;;;;;;;39.60;16.95;;;;;;;7.02;78.57;99293.25;4487379;31;34616;-77
2022/11/24 10:36:53;;;;;;;40.53;17.33;;;;;;;6.95;78.38;99296.31;4493365;31;33518;-78
2022/11/24 10:39:35;;;;;;;41.75;18.05;;;;;;;6.84;79.17;99286.38;4485427;31;33318;-80
2022/11/24 10:42:13;;;;;;;40.92;17.00;;;;;;;6.83;79.65;99296.59;4492825;31;34035;-80
2022/11/24 10:44:41;;;;;;;37.38;16.77;;;;;;;6.94;79.54;99289.41;4467606;31;33340;-77
2022/11/24 10:47:17;;;;;;;38.67;16.10;;;;;;;7.12;79.19;99298.06;4495719;31;34697;-77
2022/11/24 10:49:55;;;;;;;36.28;13.82;;;;;;;7.11;79.20;99306.59;4489605;31;34547;-78
2022/11/24 10:52:24;;;;;;;42.35;17.90;;;;;;;6.97;79.24;99298.16;4483256;31;33910;-78
2022/11/24 10:54:57;;;;;;;44.25;18.30;;;;;;;6.91;80.44;99312.41;4484837;31;33813;-77
2022/11/24 10:57:31;;;;;;;38.47;16.05;;;;;;;7.08;80.18;99307.31;4481720;31;35097;-80
2022/11/24 10:59:59;;;;;;;42.95;17.70;;;;;;;6.95;79.99;99319.50;4492109;31;33648;-78
2022/11/24 11:02:31;;;;;;;38.65;15.93;;;;;;;7.12;80.01;99316.09;4484935;31;33552;-78
2022/11/24 11:05:30;;;;;;;35.90;16.83;;;;;;;7.77;77.63;99321.84;4488500;31;33752;-80
2022/11/24 11:08:13;;;;;;;31.05;13.50;;;;;;;7.49;78.69;99317.91;4487625;31;33924;-78
2022/11/24 11:10:42;;;;;;;30.80;14.13;;;;;;;7.42;77.08;99319.31;4490686;31;33364;-80
2022/11/24 11:13:22;;;;;;;33.70;15.13;;;;;;;6.91;78.39;99317.56;4460613;31;32938;-81
2022/11/24 11:15:50;;;;;;;29.73;12.68;;;;;;;6.64;79.71;99323.03;4473617;31;33444;-79
2022/11/24 11:18:18;;;;;;;25.77;11.15;;;;;;;7.47;75.98;99324.69;4486880;31;33888;-77
2022/11/24 11:20:53;;;;;;;22.50;11.35;;;;;;;7.47;75.41;99329.84;4482691;31;34200;-78
2022/11/24 11:23:25;;;;;;;21.95;9.88;;;;;;;7.38;75.05;99324.22;4483658;32;33619;-77
2022/11/24 11:26:21;;;;;;;29.95;11.85;;;;;;;7.35;75.02;99316.34;4485582;32;33944;-78
2022/11/24 11:28:59;;;;;;;29.55;12.60;;;;;;;7.46;75.44;99320.34;4472531;31;34817;-78
2022/11/24 11:32:18;;;;;;;24.48;11.15;;;;;;;7.72;75.00;99323.31;4481457;32;35689;-80
2022/11/24 11:35:10;;;;;;;21.87;10.25;;;;;;;7.76;75.28;99326.09;4481005;31;32509;-79
2022/11/24 11:37:38;;;;;;;22.20;9.82;;;;;;;7.91;74.31;99333.69;4480065;31;34562;-79
2022/11/24 11:40:13;;;;;;;19.80;9.02;;;;;;;7.70;73.85;99324.94;4479125;31;33450;-78
2022/11/24 11:42:45;;;;;;;25.33;11.40;;;;;;;7.88;73.63;99331.88;4473897;31;35051;-78